createdAt,value
2023-02-25T00:01:20.704Z,98904.19
2023-02-25T00:03:48.541Z,98931.91
2023-02-25T00:06:16.401Z,98916.00
2023-02-25T00:08:45.786Z,98933.56
2023-02-25T00:11:17.683Z,98933.41
2023-02-25T00:13:45.935Z,98932.00
2023-02-25T00:16:14.836Z,98891.13
2023-02-25T00:18:44.469Z,98933.34
2023-02-25T00:21:15.188Z,98936.38
2023-02-25T00:23:44.356Z,98934.63
2023-02-25T00:26:12.634Z,98932.00
2023-02-25T00:28:43.145Z,98923.13
2023-02-25T00:31:13.819Z,98902.75
2023-02-25T00:33:42.250Z,98917.94
2023-02-25T00:36:13.143Z,98931.91
2023-02-25T00:38:41.558Z,98939.25
2023-02-25T00:41:12.534Z,98930.19
2023-02-25T00:43:43.994Z,98937.31
2023-02-25T00:46:13.068Z,98795.38
2023-02-25T00:48:42.080Z,98947.78
2023-02-25T00:51:11.865Z,98917.44
2023-02-25T00:53:39.920Z,98931.91
2023-02-25T00:56:09.583Z,98938.31
2023-02-25T00:58:37.809Z,98918.34
2023-02-25T01:01:18.128Z,98935.47
2023-02-25T01:03:47.623Z,98929.53
2023-02-25T01:06:16.867Z,98943.28
2023-02-25T01:08:45.365Z,98928.97
2023-02-25T01:11:16.124Z,98948.31
2023-02-25T01:13:44.999Z,98904.66
2023-02-25T01:16:17.282Z,98935.66
2023-02-25T01:18:46.394Z,98958.13
2023-02-25T01:21:18.497Z,98949.63
2023-02-25T01:23:47.264Z,98956.56
2023-02-25T01:26:15.852Z,98961.75
2023-02-25T01:28:44.154Z,98963.78
2023-02-25T01:31:19.240Z,98958.47
2023-02-25T01:33:47.718Z,98971.63
2023-02-25T01:36:15.546Z,98929.91
2023-02-25T01:38:43.364Z,98966.09
2023-02-25T01:41:11.426Z,98889.28
2023-02-25T01:43:39.292Z,98961.25
2023-02-25T01:46:07.177Z,98942.22
2023-02-25T01:48:40.621Z,98967.16
2023-02-25T01:51:12.961Z,98939.53
2023-02-25T01:53:46.620Z,98965.53
2023-02-25T01:56:21.126Z,98938.00
2023-02-25T01:58:49.929Z,98971.03
2023-02-25T02:01:21.279Z,98974.50
2023-02-25T02:03:52.661Z,98984.06
2023-02-25T02:06:24.726Z,98982.94
2023-02-25T02:08:52.757Z,98983.19
2023-02-25T02:11:21.030Z,98906.72
2023-02-25T02:13:54.170Z,98981.34
2023-02-25T02:16:33.331Z,98987.25
2023-02-25T02:19:20.000Z,98995.44
2023-02-25T02:22:01.868Z,98988.34
2023-02-25T02:25:11.184Z,98985.66
2023-02-25T02:27:57.888Z,98976.22
2023-02-25T02:30:47.659Z,98972.16
2023-02-25T02:33:23.910Z,98984.22
2023-02-25T02:35:58.215Z,98982.56
2023-02-25T02:38:34.924Z,98981.00
2023-02-25T02:41:10.595Z,98963.97
2023-02-25T02:43:46.160Z,98989.50
2023-02-25T02:46:19.955Z,98994.22
2023-02-25T02:48:56.199Z,98994.91
2023-02-25T02:51:28.756Z,98988.81
2023-02-25T02:53:59.173Z,98997.97
2023-02-25T02:56:29.694Z,99000.69
2023-02-25T02:59:05.330Z,98994.59
2023-02-25T03:01:37.083Z,99012.03
2023-02-25T03:04:11.713Z,99016.50
2023-02-25T03:06:43.491Z,99020.59
2023-02-25T03:09:15.267Z,99014.47
2023-02-25T03:11:43.323Z,98981.72
2023-02-25T03:14:13.033Z,98983.84
2023-02-25T03:16:47.052Z,99001.84
2023-02-25T03:19:19.656Z,98985.28
2023-02-25T03:21:54.760Z,99002.09
2023-02-25T03:24:28.424Z,99002.81
2023-02-25T03:26:57.027Z,98999.31
2023-02-25T03:29:28.535Z,98988.66
2023-02-25T03:32:03.264Z,99012.97
2023-02-25T03:34:36.997Z,99038.03
2023-02-25T03:37:10.602Z,99026.00
2023-02-25T03:39:41.873Z,99022.94
2023-02-25T03:42:14.431Z,99018.13
2023-02-25T03:44:47.138Z,99001.72
2023-02-25T03:47:17.018Z,99029.97
2023-02-25T03:49:51.835Z,99034.19
2023-02-25T03:52:24.114Z,99039.50
2023-02-25T03:54:57.625Z,99044.53
2023-02-25T03:57:34.859Z,99041.91
2023-02-25T04:00:15.864Z,99045.41
2023-02-25T04:02:45.016Z,99055.22
2023-02-25T04:05:15.127Z,99051.69
2023-02-25T04:07:43.485Z,99050.72
2023-02-25T04:10:13.857Z,99017.84
2023-02-25T04:12:42.092Z,99054.75
2023-02-25T04:15:10.990Z,98893.13
2023-02-25T04:17:39.105Z,99070.72
2023-02-25T04:20:08.225Z,99074.59
2023-02-25T04:22:37.419Z,99067.25
2023-02-25T04:25:06.264Z,99081.25
2023-02-25T04:27:34.110Z,99064.84
2023-02-25T04:30:01.924Z,99074.50
2023-02-25T04:32:29.893Z,99071.09
2023-02-25T04:35:03.079Z,99075.22
2023-02-25T04:37:31.063Z,99077.34
2023-02-25T04:40:00.265Z,99079.72
2023-02-25T04:42:28.071Z,98996.53
2023-02-25T04:44:56.103Z,99088.56
2023-02-25T04:47:24.070Z,99071.22
2023-02-25T04:49:51.837Z,99070.47
2023-02-25T04:52:19.984Z,99088.88
2023-02-25T04:54:47.855Z,99089.03
2023-02-25T04:57:17.608Z,99088.88
2023-02-25T04:59:45.520Z,99073.16
2023-02-25T05:02:13.621Z,99078.28
2023-02-25T05:04:41.707Z,99031.41
2023-02-25T05:07:09.896Z,99068.44
2023-02-25T05:09:37.743Z,99083.38
2023-02-25T05:12:05.731Z,99078.66
2023-02-25T05:14:34.933Z,99078.41
2023-02-25T05:17:02.839Z,99080.22
2023-02-25T05:19:30.699Z,99088.72
2023-02-25T05:21:58.498Z,99065.31
2023-02-25T05:24:26.638Z,99088.00
2023-02-25T05:26:55.215Z,99096.06
2023-02-25T05:29:23.189Z,99093.97
2023-02-25T05:31:52.567Z,99084.63
2023-02-25T05:34:22.864Z,99087.25
2023-02-25T05:36:50.615Z,99087.63
2023-02-25T05:39:18.524Z,99092.66
2023-02-25T05:41:46.357Z,98994.19
2023-02-25T05:44:14.163Z,99099.81
2023-02-25T05:46:41.973Z,99106.03
2023-02-25T05:49:11.654Z,99084.78
2023-02-25T05:51:39.449Z,99083.00
2023-02-25T05:54:07.303Z,99112.53
2023-02-25T05:56:35.130Z,99103.00
2023-02-25T05:59:02.990Z,99105.91
2023-02-25T06:01:31.782Z,99117.34
2023-02-25T06:04:00.552Z,99046.34
2023-02-25T06:06:31.601Z,99111.97
2023-02-25T06:08:59.799Z,99026.81
2023-02-25T06:11:29.229Z,99094.72
2023-02-25T06:13:59.011Z,99125.53
2023-02-25T06:16:31.970Z,99133.44
2023-02-25T06:19:01.379Z,99145.75
2023-02-25T06:21:30.989Z,99158.00
2023-02-25T06:23:58.900Z,99135.38
2023-02-25T06:26:26.845Z,99155.22
2023-02-25T06:28:55.285Z,99148.25
2023-02-25T06:31:25.012Z,99155.53
2023-02-25T06:33:53.367Z,99118.25
2023-02-25T06:36:22.073Z,99175.75
2023-02-25T06:38:51.730Z,99180.28
2023-02-25T06:41:21.842Z,99181.22
2023-02-25T06:43:52.005Z,99151.63
2023-02-25T06:46:23.039Z,99181.84
2023-02-25T06:48:51.134Z,99171.53
2023-02-25T06:51:19.162Z,98960.81
2023-02-25T06:53:47.523Z,99200.44
2023-02-25T06:56:20.132Z,99194.22
2023-02-25T06:58:48.824Z,99202.13
2023-02-25T07:01:17.986Z,98995.59
2023-02-25T07:03:46.217Z,99201.28
2023-02-25T07:06:15.853Z,99192.50
2023-02-25T07:08:44.148Z,99210.81
2023-02-25T07:11:29.224Z,99108.94
2023-02-25T07:13:57.628Z,99117.91
2023-02-25T07:16:26.090Z,99182.44
2023-02-25T07:18:54.210Z,99223.41
2023-02-25T07:21:22.968Z,99203.41
2023-02-25T07:23:51.611Z,99228.44
2023-02-25T07:26:21.046Z,99134.44
2023-02-25T07:28:49.129Z,99246.84
2023-02-25T07:31:19.003Z,99248.50
2023-02-25T07:33:47.137Z,99249.91
2023-02-25T07:36:15.797Z,99251.47
2023-02-25T07:38:44.202Z,99252.44
2023-02-25T07:41:14.085Z,99257.84
2023-02-25T07:43:43.756Z,99256.97
2023-02-25T07:46:13.228Z,99265.72
2023-02-25T07:48:42.046Z,99263.03
2023-02-25T07:51:12.350Z,99265.91
2023-02-25T07:53:41.060Z,99265.06
2023-02-25T07:56:10.391Z,99270.34
2023-02-25T07:58:38.542Z,99277.88
2023-02-25T08:01:10.820Z,99265.69
2023-02-25T08:03:39.167Z,99274.69
2023-02-25T08:06:09.134Z,99286.75
2023-02-25T08:08:37.563Z,99250.16
2023-02-25T08:11:08.921Z,99249.97
2023-02-25T08:13:37.361Z,99289.13
2023-02-25T08:16:06.111Z,99286.44
2023-02-25T08:18:35.405Z,99278.72
2023-02-25T08:21:04.399Z,99296.91
2023-02-25T08:23:32.832Z,99175.94
2023-02-25T08:26:01.652Z,99285.34
2023-02-25T08:28:34.379Z,99312.19
2023-02-25T08:31:04.352Z,99257.94
2023-02-25T08:33:32.662Z,99240.38
2023-02-25T08:36:10.163Z,99306.22
2023-02-25T08:38:38.921Z,99265.97
2023-02-25T08:41:07.568Z,99304.47
2023-02-25T08:43:35.637Z,99273.00
2023-02-25T08:46:04.456Z,99291.22
2023-02-25T08:48:32.296Z,99293.72
2023-02-25T08:51:03.614Z,99313.28
2023-02-25T08:53:32.926Z,99318.09
2023-02-25T08:56:04.072Z,99308.47
2023-02-25T08:58:32.044Z,99310.88
2023-02-25T09:01:00.353Z,99287.91
2023-02-25T09:03:28.665Z,99312.16
2023-02-25T09:05:57.338Z,99314.38
2023-02-25T09:08:25.683Z,99323.56
2023-02-25T09:10:55.246Z,99271.66
2023-02-25T09:13:23.059Z,99319.19
2023-02-25T09:15:57.681Z,99320.31
2023-02-25T09:18:25.735Z,99329.19
2023-02-25T09:20:53.782Z,99309.50
2023-02-25T09:23:21.925Z,99324.88
2023-02-25T09:25:50.044Z,99348.94
2023-02-25T09:28:19.225Z,99348.28
2023-02-25T09:30:47.671Z,99325.78
2023-02-25T09:33:15.633Z,99327.97
2023-02-25T09:35:43.497Z,99353.91
2023-02-25T09:38:11.332Z,99330.97
2023-02-25T09:40:41.136Z,99361.03
2023-02-25T09:43:23.130Z,99358.25
2023-02-25T09:45:53.982Z,99357.69
2023-02-25T09:48:27.504Z,99302.22
2023-02-25T09:51:03.919Z,99385.28
2023-02-25T09:53:36.996Z,99355.66
2023-02-25T09:56:07.422Z,99382.00
2023-02-25T09:58:42.359Z,99398.59
2023-02-25T10:01:17.504Z,99398.75
2023-02-25T10:03:54.487Z,99404.06
2023-02-25T10:06:27.638Z,99407.66
2023-02-25T10:09:06.042Z,99378.84
2023-02-25T10:11:47.730Z,99362.25
2023-02-25T10:14:31.724Z,99384.44
2023-02-25T10:17:06.946Z,99407.88
2023-02-25T10:19:48.194Z,99372.06
2023-02-25T10:22:34.421Z,99404.69
2023-02-25T10:25:11.900Z,99338.88
2023-02-25T10:27:44.621Z,99348.91
2023-02-25T10:30:17.957Z,99434.19
2023-02-25T10:32:46.959Z,99342.72
2023-02-25T10:35:18.388Z,99418.34
2023-02-25T10:37:46.326Z,99451.34
2023-02-25T10:40:17.600Z,99455.13
2023-02-25T10:42:48.902Z,99461.91
2023-02-25T10:45:23.501Z,99468.78
2023-02-25T10:47:59.977Z,99444.13
2023-02-25T10:50:42.941Z,99462.78
2023-02-25T10:53:16.154Z,99457.31
2023-02-25T10:55:52.424Z,99427.28
2023-02-25T10:58:27.891Z,99455.09
2023-02-25T11:01:02.198Z,99492.66
2023-02-25T11:03:32.510Z,99467.47
2023-02-25T11:06:13.658Z,99460.97
2023-02-25T11:08:44.194Z,99469.91
2023-02-25T11:11:19.573Z,99479.66
2023-02-25T11:14:05.614Z,99483.06
2023-02-25T11:16:37.876Z,99437.53
2023-02-25T11:19:15.016Z,99456.19
2023-02-25T11:21:43.572Z,99467.31
2023-02-25T11:24:17.322Z,99437.66
2023-02-25T11:26:47.765Z,99482.00
2023-02-25T11:29:20.564Z,99482.94
2023-02-25T11:31:53.302Z,99495.38
2023-02-25T11:34:24.556Z,99492.25
2023-02-25T11:36:53.154Z,99499.41
2023-02-25T11:39:23.069Z,99479.28
2023-02-25T11:41:53.063Z,99483.28
2023-02-25T11:44:24.706Z,99497.88
2023-02-25T11:47:00.289Z,99504.38
2023-02-25T11:49:46.472Z,99513.34
2023-02-25T11:52:22.488Z,99509.78
2023-02-25T11:55:01.316Z,99520.66
2023-02-25T11:57:40.745Z,99519.13
2023-02-25T12:00:25.530Z,99468.59
2023-02-25T12:03:11.351Z,99529.00
2023-02-25T12:06:05.014Z,99303.19
2023-02-25T12:08:55.723Z,99518.25
2023-02-25T12:11:48.338Z,99515.31
2023-02-25T12:14:42.455Z,99523.03
2023-02-25T12:17:41.938Z,99486.22
2023-02-25T12:20:46.273Z,99534.34
2023-02-25T12:23:55.951Z,99536.34
2023-02-25T12:26:35.915Z,99470.56
2023-02-25T12:29:27.031Z,99532.00
2023-02-25T12:32:09.308Z,99535.28
2023-02-25T12:35:25.005Z,99536.53
2023-02-25T12:38:34.380Z,99547.03
2023-02-25T12:41:17.192Z,99548.44
2023-02-25T12:43:51.397Z,99521.59
2023-02-25T12:46:39.874Z,99565.97
2023-02-25T12:49:34.465Z,99527.09
2023-02-25T12:52:19.490Z,99563.66
2023-02-25T12:55:17.116Z,99583.88
2023-02-25T12:57:57.248Z,99587.03
2023-02-25T13:00:49.860Z,99585.56
2023-02-25T13:03:40.830Z,99582.78
2023-02-25T13:06:36.545Z,99582.13
2023-02-25T13:09:39.442Z,99571.56
2023-02-25T13:12:23.046Z,99594.91
2023-02-25T13:15:05.587Z,99595.31
2023-02-25T13:17:54.798Z,99599.81
2023-02-25T13:20:48.455Z,99594.16
2023-02-25T13:23:58.178Z,99606.44
2023-02-25T13:26:46.534Z,99605.56
2023-02-25T13:29:27.431Z,99588.22
2023-02-25T13:32:11.263Z,99575.13
2023-02-25T13:34:47.545Z,99557.59
2023-02-25T13:37:38.139Z,99603.66
2023-02-25T13:40:21.847Z,99619.06
2023-02-25T13:43:06.506Z,99546.16
2023-02-25T13:45:50.488Z,99634.03
2023-02-25T13:48:39.948Z,99634.19
2023-02-25T13:51:50.377Z,99644.44
2023-02-25T13:54:38.273Z,99639.84
2023-02-25T13:57:18.158Z,99666.34
2023-02-25T14:00:31.794Z,99643.66
2023-02-25T14:03:49.092Z,99647.44
2023-02-25T14:06:27.145Z,99606.94
2023-02-25T14:09:11.338Z,99656.06
2023-02-25T14:11:57.801Z,99635.06
2023-02-25T14:15:02.444Z,99651.78
2023-02-25T14:17:47.554Z,99654.22
2023-02-25T14:20:29.564Z,99650.88
2023-02-25T14:23:04.170Z,99675.41
2023-02-25T14:25:51.048Z,99673.69
2023-02-25T14:28:27.010Z,99688.81
2023-02-25T14:31:07.428Z,99592.06
2023-02-25T14:33:53.535Z,99682.00
2023-02-25T14:36:37.878Z,99689.00
2023-02-25T14:39:24.471Z,99696.06
2023-02-25T14:42:05.583Z,99694.44
2023-02-25T14:44:39.119Z,99715.91
2023-02-25T14:47:12.598Z,99717.84
2023-02-25T14:49:47.144Z,99724.06
2023-02-25T14:52:51.668Z,99729.47
2023-02-25T14:55:55.987Z,99738.13
2023-02-25T14:58:44.348Z,99742.72
2023-02-25T15:01:26.958Z,99745.41
2023-02-25T15:04:25.866Z,99744.69
2023-02-25T15:07:16.118Z,99717.63
2023-02-25T15:10:09.514Z,99751.66
2023-02-25T15:12:55.658Z,99739.19
2023-02-25T15:15:35.990Z,99747.22
2023-02-25T15:18:25.743Z,99759.09
2023-02-25T15:20:54.365Z,99762.63
2023-02-25T15:23:23.644Z,99689.53
2023-02-25T15:26:14.064Z,99724.41
2023-02-25T15:28:44.398Z,99774.91
2023-02-25T15:31:30.713Z,99789.38
2023-02-25T15:34:30.014Z,99787.53
2023-02-25T15:37:21.244Z,99792.00
2023-02-25T15:39:51.915Z,99799.13
2023-02-25T15:42:46.666Z,99813.38
2023-02-25T15:45:40.225Z,99806.13
2023-02-25T15:48:32.082Z,99810.50
2023-02-25T15:51:01.437Z,99815.06
2023-02-25T15:53:45.064Z,99816.88
2023-02-25T15:56:45.473Z,99810.84
2023-02-25T15:59:41.395Z,99834.59
2023-02-25T16:02:42.465Z,99844.28
2023-02-25T16:05:29.119Z,99842.75
2023-02-25T16:08:15.423Z,99719.56
2023-02-25T16:10:47.078Z,99829.84
2023-02-25T16:13:17.612Z,99813.22
2023-02-25T16:15:52.509Z,99839.41
2023-02-25T16:18:27.757Z,99836.97
2023-02-25T16:21:00.465Z,99848.38
2023-02-25T16:23:29.056Z,99861.34
2023-02-25T16:26:08.279Z,99848.44
2023-02-25T16:28:45.254Z,99871.09
2023-02-25T16:31:20.947Z,99839.75
2023-02-25T16:33:54.453Z,99868.63
2023-02-25T16:36:31.945Z,99815.34
2023-02-25T16:39:03.439Z,99826.72
2023-02-25T16:41:38.036Z,99875.94
2023-02-25T16:44:07.781Z,99883.94
2023-02-25T16:46:39.448Z,99884.75
2023-02-25T16:49:11.572Z,99850.00
2023-02-25T16:51:42.316Z,99900.81
2023-02-25T16:54:15.122Z,99889.28
2023-02-25T16:56:46.362Z,99898.16
2023-02-25T16:59:21.627Z,99890.38
2023-02-25T17:01:57.299Z,99909.66
2023-02-25T17:04:29.769Z,99832.63
2023-02-25T17:07:17.809Z,99913.31
2023-02-25T17:09:47.890Z,99920.47
2023-02-25T17:12:17.324Z,99917.03
2023-02-25T17:14:46.979Z,99922.38
2023-02-25T17:17:22.284Z,99918.88
2023-02-25T17:19:51.905Z,99892.59
2023-02-25T17:22:22.542Z,99921.47
2023-02-25T17:24:53.036Z,99868.97
2023-02-25T17:27:22.272Z,99894.38
2023-02-25T17:29:50.878Z,99926.84
2023-02-25T17:32:25.320Z,99888.28
2023-02-25T17:34:56.519Z,99937.41
2023-02-25T17:37:27.057Z,99944.56
2023-02-25T17:39:55.498Z,99874.41
2023-02-25T17:42:29.757Z,99944.53
2023-02-25T17:44:58.911Z,99948.09
2023-02-25T17:47:30.603Z,99885.94
2023-02-25T17:50:00.432Z,99946.41
2023-02-25T17:52:31.124Z,99929.75
2023-02-25T17:55:01.958Z,99942.06
2023-02-25T17:57:31.829Z,99952.50
2023-02-25T18:00:10.177Z,99954.41
2023-02-25T18:02:41.301Z,99936.06
2023-02-25T18:05:21.458Z,99914.16
2023-02-25T18:08:16.190Z,99972.06
2023-02-25T18:10:55.976Z,99940.53
2023-02-25T18:13:33.771Z,99976.47
2023-02-25T18:16:42.284Z,99988.81
2023-02-25T18:19:27.864Z,99979.97
2023-02-25T18:21:56.247Z,99986.25
2023-02-25T18:24:28.312Z,99988.03
2023-02-25T18:27:05.278Z,99992.41
2023-02-25T18:29:33.923Z,99977.53
2023-02-25T18:32:02.013Z,99995.19
2023-02-25T18:34:31.793Z,100008.44
2023-02-25T18:37:00.333Z,100007.41
2023-02-25T18:39:28.467Z,100009.16
2023-02-25T18:41:56.298Z,99942.59
2023-02-25T18:44:24.183Z,100008.44
2023-02-25T18:46:52.069Z,100009.28
2023-02-25T18:49:19.907Z,99917.25
2023-02-25T18:51:52.053Z,99992.63
2023-02-25T18:54:20.027Z,100004.91
2023-02-25T18:56:48.145Z,100017.22
2023-02-25T18:59:16.058Z,100017.22
2023-02-25T19:01:45.211Z,100011.09
2023-02-25T19:04:17.419Z,100017.13
2023-02-25T19:06:46.716Z,99954.09
2023-02-25T19:09:17.203Z,99900.66
2023-02-25T19:11:45.094Z,100034.88
2023-02-25T19:14:18.509Z,100029.63
2023-02-25T19:16:46.393Z,99829.81
2023-02-25T19:19:15.012Z,100007.72
2023-02-25T19:21:42.897Z,99971.75
2023-02-25T19:24:13.391Z,100041.81
2023-02-25T19:26:42.660Z,99983.16
2023-02-25T19:29:10.588Z,100029.59
2023-02-25T19:31:38.559Z,99938.44
2023-02-25T19:34:06.469Z,100043.63
2023-02-25T19:36:34.367Z,100027.88
2023-02-25T19:39:02.149Z,100042.00
2023-02-25T19:41:30.554Z,100051.75
2023-02-25T19:43:59.760Z,100052.47
2023-02-25T19:46:28.607Z,100053.38
2023-02-25T19:48:56.424Z,100054.25
2023-02-25T19:51:24.278Z,100055.16
2023-02-25T19:53:52.292Z,100036.75
2023-02-25T19:56:20.147Z,100068.38
2023-02-25T19:58:47.963Z,100075.34
2023-02-25T20:01:17.283Z,100074.44
2023-02-25T20:03:45.193Z,100067.41
2023-02-25T20:06:13.689Z,100073.53
2023-02-25T20:08:41.844Z,100075.34
2023-02-25T20:11:10.544Z,100069.22
2023-02-25T20:13:39.078Z,100084.25
2023-02-25T20:16:09.036Z,100071.94
2023-02-25T20:18:38.751Z,100009.63
2023-02-25T20:21:07.205Z,100087.53
2023-02-25T20:23:35.155Z,100092.06
2023-02-25T20:26:08.125Z,100078.91
2023-02-25T20:28:36.804Z,100095.53
2023-02-25T20:31:06.995Z,100071.03
2023-02-25T20:33:34.783Z,100099.06
2023-02-25T20:36:18.289Z,100098.19
2023-02-25T20:38:58.790Z,100108.78
2023-02-25T20:41:26.897Z,100112.41
2023-02-25T20:43:54.859Z,100110.66
2023-02-25T20:46:27.335Z,100099.28
2023-02-25T20:48:55.516Z,100108.94
2023-02-25T20:51:25.473Z,100123.03
2023-02-25T20:53:54.063Z,100088.75
2023-02-25T20:56:24.162Z,100119.44
2023-02-25T20:58:53.328Z,100120.31
2023-02-25T21:01:22.050Z,100123.84
2023-02-25T21:03:50.285Z,100121.31
2023-02-25T21:06:19.774Z,100138.94
2023-02-25T21:08:49.252Z,100137.19
2023-02-25T21:11:17.133Z,100116.16
2023-02-25T21:13:46.644Z,100132.84
2023-02-25T21:16:16.380Z,100126.75
2023-02-25T21:18:45.166Z,100154.88
2023-02-25T21:21:14.537Z,100130.28
2023-02-25T21:23:43.195Z,100049.53
2023-02-25T21:26:13.018Z,100167.22
2023-02-25T21:28:42.186Z,100131.19
2023-02-25T21:31:12.715Z,100138.25
2023-02-25T21:33:41.196Z,100179.56
2023-02-25T21:36:10.568Z,100174.28
2023-02-25T21:38:39.258Z,100172.56
2023-02-25T21:41:08.968Z,100161.97
2023-02-25T21:43:38.907Z,100164.66
2023-02-25T21:46:10.841Z,100181.34
2023-02-25T21:48:39.874Z,100177.81
2023-02-25T21:51:08.038Z,100160.25
2023-02-25T21:53:36.146Z,100144.41
2023-02-25T21:56:10.505Z,100178.72
2023-02-25T21:58:40.024Z,100172.56
2023-02-25T22:01:15.681Z,100178.72
2023-02-25T22:03:44.287Z,100179.63
2023-02-25T22:06:12.922Z,100184.00
2023-02-25T22:08:41.560Z,100190.19
2023-02-25T22:11:13.097Z,100198.97
2023-02-25T22:13:43.283Z,100209.53
2023-02-25T22:16:11.791Z,100198.97
2023-02-25T22:18:39.958Z,100182.22
2023-02-25T22:21:10.709Z,100201.59
2023-02-25T22:23:39.194Z,100200.72
2023-02-25T22:26:09.345Z,100200.72
2023-02-25T22:28:37.678Z,100170.84
2023-02-25T22:31:10.051Z,100204.22
2023-02-25T22:33:38.578Z,100212.16
2023-02-25T22:36:07.764Z,100206.88
2023-02-25T22:38:37.989Z,100210.41
2023-02-25T22:41:05.932Z,100224.47
2023-02-25T22:43:34.758Z,100213.91
2023-02-25T22:46:08.546Z,100210.41
2023-02-25T22:48:37.220Z,100219.19
2023-02-25T22:51:06.507Z,100194.56
2023-02-25T22:53:34.683Z,100214.78
2023-02-25T22:56:03.618Z,100235.88
2023-02-25T22:58:31.707Z,100133.91
2023-02-25T23:01:00.485Z,100236.75
2023-02-25T23:03:29.944Z,100241.16
2023-02-25T23:05:57.921Z,100240.25
2023-02-25T23:08:26.328Z,100242.88
2023-02-25T23:10:54.647Z,100166.38
2023-02-25T23:13:22.734Z,100233.25
2023-02-25T23:15:50.944Z,100196.28
2023-02-25T23:18:19.095Z,100253.44
2023-02-25T23:20:53.671Z,100256.97
2023-02-25T23:23:21.775Z,100246.41
2023-02-25T23:25:52.265Z,100242.88
2023-02-25T23:28:20.368Z,100260.47
2023-02-25T23:30:48.717Z,100235.81
2023-02-25T23:33:17.929Z,100270.06
2023-02-25T23:35:45.969Z,100270.94
2023-02-25T23:38:15.369Z,100266.56
2023-02-25T23:40:43.293Z,100271.88
2023-02-25T23:43:11.394Z,100251.63
2023-02-25T23:45:39.298Z,100277.97
2023-02-25T23:48:07.499Z,100282.41
2023-02-25T23:50:35.605Z,100292.00
2023-02-25T23:53:03.702Z,100270.06
2023-02-25T23:55:32.960Z,100289.44
2023-02-25T23:58:00.905Z,100299.06
